createdAt,value
2017-12-20T00:02:17.150Z,1.10
2017-12-20T00:07:01.578Z,1.10
2017-12-20T00:11:46.660Z,1.10
2017-12-20T00:16:31.503Z,1.00
2017-12-20T00:21:16.846Z,1.00
2017-12-20T00:26:01.135Z,0.90
2017-12-20T00:30:45.528Z,1.00
2017-12-20T00:35:29.956Z,1.00
2017-12-20T00:40:14.115Z,0.90
2017-12-20T00:44:58.457Z,0.80
2017-12-20T00:49:42.916Z,0.70
2017-12-20T00:54:27.315Z,0.50
2017-12-20T00:59:11.693Z,0.40
2017-12-20T01:03:56.050Z,0.30
2017-12-20T01:08:40.442Z,0.40
2017-12-20T01:13:24.839Z,0.40
2017-12-20T01:18:10.012Z,0.30
2017-12-20T01:22:54.466Z,0.20
2017-12-20T01:27:38.856Z,0.30
2017-12-20T01:32:23.272Z,0.40
2017-12-20T01:37:07.732Z,0.60
2017-12-20T01:41:52.132Z,0.60
2017-12-20T01:46:36.592Z,0.60
2017-12-20T01:51:21.757Z,0.60
2017-12-20T01:56:06.206Z,0.50
2017-12-20T02:00:51.291Z,0.50
2017-12-20T02:05:36.468Z,0.40
2017-12-20T02:10:20.901Z,0.40
2017-12-20T02:15:06.915Z,0.40
2017-12-20T02:19:51.295Z,0.20
2017-12-20T02:24:35.696Z,0.20
2017-12-20T02:29:20.896Z,0.10
2017-12-20T02:34:05.339Z,0.10
2017-12-20T02:38:49.955Z,0.10
2017-12-20T02:43:34.616Z,0.00
2017-12-20T02:48:19.134Z,-0.10
2017-12-20T02:53:03.659Z,-0.30
2017-12-20T02:57:48.199Z,-0.30
2017-12-20T03:02:33.488Z,-0.30
2017-12-20T03:07:17.965Z,-0.30
2017-12-20T03:12:02.443Z,-0.30
2017-12-20T03:16:47.515Z,-0.30
2017-12-20T03:21:31.821Z,-0.30
2017-12-20T03:26:16.138Z,-0.30
2017-12-20T03:31:01.253Z,-0.40
2017-12-20T03:35:46.403Z,-0.30
2017-12-20T03:40:30.786Z,-0.30
2017-12-20T03:45:15.057Z,-0.30
2017-12-20T03:50:00.108Z,-0.30
2017-12-20T03:54:44.461Z,-0.30
2017-12-20T03:59:28.743Z,-0.10
2017-12-20T04:04:13.116Z,-0.10
2017-12-20T04:08:57.453Z,-0.10
2017-12-20T04:13:41.778Z,0.00
2017-12-20T04:18:26.089Z,0.10
2017-12-20T04:23:10.400Z,0.10
2017-12-20T04:27:54.692Z,0.10
2017-12-20T04:32:39.739Z,0.20
2017-12-20T04:37:24.368Z,0.20
2017-12-20T04:42:08.635Z,0.20
2017-12-20T04:46:52.946Z,0.30
2017-12-20T04:51:37.202Z,0.30
2017-12-20T04:56:21.435Z,0.30
2017-12-20T05:01:06.431Z,0.30
2017-12-20T05:05:50.715Z,0.30
2017-12-20T05:10:34.951Z,0.40
2017-12-20T05:15:19.200Z,0.30
2017-12-20T05:20:04.191Z,0.40
2017-12-20T05:24:48.530Z,0.40
2017-12-20T05:29:33.323Z,0.50
2017-12-20T05:34:17.588Z,0.50
2017-12-20T05:39:01.873Z,0.50
2017-12-20T05:43:46.280Z,0.50
2017-12-20T05:48:30.535Z,0.50
2017-12-20T05:53:14.834Z,0.50
2017-12-20T05:57:59.096Z,0.50
2017-12-20T06:02:44.148Z,0.60
2017-12-20T06:07:28.458Z,0.50
2017-12-20T06:12:13.537Z,0.50
2017-12-20T06:16:57.775Z,0.50
2017-12-20T06:21:42.037Z,0.50
2017-12-20T06:26:26.302Z,0.50
2017-12-20T06:31:10.564Z,0.50
2017-12-20T06:35:54.844Z,0.60
2017-12-20T06:40:39.120Z,0.60
2017-12-20T06:45:23.532Z,0.60
2017-12-20T06:50:07.994Z,0.70
2017-12-20T06:54:52.280Z,0.70
2017-12-20T06:59:36.611Z,0.70
2017-12-20T07:04:21.744Z,0.80
2017-12-20T07:09:06.320Z,0.80
2017-12-20T07:13:50.765Z,0.80
2017-12-20T07:18:35.183Z,0.80
2017-12-20T07:23:19.599Z,0.80
2017-12-20T07:28:04.115Z,0.80
2017-12-20T07:32:48.456Z,0.80
2017-12-20T07:37:32.879Z,0.80
2017-12-20T07:42:17.410Z,0.90
2017-12-20T07:47:01.773Z,0.90
2017-12-20T07:51:46.927Z,1.10
2017-12-20T07:56:31.393Z,1.10
2017-12-20T08:01:16.536Z,1.10
2017-12-20T08:06:00.985Z,1.10
2017-12-20T08:10:45.339Z,1.20
2017-12-20T08:15:29.859Z,1.30
2017-12-20T08:20:14.614Z,1.40
2017-12-20T08:24:59.660Z,1.50
2017-12-20T08:29:44.097Z,1.50
2017-12-20T08:34:28.737Z,1.70
2017-12-20T08:39:13.380Z,1.80
2017-12-20T08:43:57.789Z,1.90
2017-12-20T08:48:42.219Z,2.10
2017-12-20T08:53:26.888Z,2.10
2017-12-20T08:58:11.785Z,1.90
2017-12-20T09:02:56.442Z,1.80
2017-12-20T09:07:41.048Z,1.90
2017-12-20T09:12:25.449Z,2.00
2017-12-20T09:17:09.869Z,2.00
2017-12-20T09:21:54.372Z,2.10
2017-12-20T09:26:39.572Z,2.30
2017-12-20T09:31:24.837Z,2.20
2017-12-20T09:36:09.671Z,2.20
2017-12-20T09:40:54.910Z,2.20
2017-12-20T09:45:40.392Z,2.10
2017-12-20T09:50:25.062Z,2.10
2017-12-20T09:55:09.964Z,2.20
2017-12-20T09:59:55.414Z,2.40
2017-12-20T10:04:39.962Z,2.40
2017-12-20T10:09:24.393Z,2.40
2017-12-20T10:14:09.575Z,2.60
2017-12-20T10:18:54.061Z,2.60
2017-12-20T10:23:38.695Z,2.70
2017-12-20T10:28:23.577Z,2.80
2017-12-20T10:33:08.639Z,3.00
2017-12-20T10:37:53.348Z,3.00
2017-12-20T10:42:38.484Z,3.10
2017-12-20T10:47:23.959Z,3.20
2017-12-20T10:52:08.574Z,3.20
2017-12-20T10:56:53.106Z,3.30
2017-12-20T11:01:37.564Z,3.40
2017-12-20T11:06:22.805Z,3.30
2017-12-20T11:11:07.206Z,3.30
2017-12-20T11:15:51.622Z,3.30
2017-12-20T11:20:36.844Z,3.50
2017-12-20T11:25:21.644Z,3.60
2017-12-20T11:30:08.268Z,4.00
2017-12-20T11:34:53.229Z,4.00
2017-12-20T11:39:37.710Z,4.00
2017-12-20T11:44:22.151Z,3.80
2017-12-20T11:49:07.102Z,3.60
2017-12-20T11:53:51.608Z,3.40
2017-12-20T11:58:36.063Z,3.30
2017-12-20T12:03:20.495Z,3.30
2017-12-20T12:08:05.218Z,3.30
2017-12-20T12:12:49.966Z,3.40
2017-12-20T12:17:35.207Z,3.30
2017-12-20T12:22:20.315Z,3.40
2017-12-20T12:27:05.683Z,3.70
2017-12-20T12:31:53.528Z,3.70
2017-12-20T12:36:41.025Z,3.80
2017-12-20T12:41:28.353Z,4.00
2017-12-20T12:46:15.432Z,4.00
2017-12-20T12:51:00.304Z,3.70
2017-12-20T12:55:45.949Z,3.30
2017-12-20T13:00:31.400Z,3.10
2017-12-20T13:05:17.948Z,3.10
2017-12-20T13:10:04.549Z,2.90
2017-12-20T13:14:49.402Z,2.90
2017-12-20T13:19:34.613Z,2.80
2017-12-20T13:24:20.253Z,2.90
2017-12-20T13:29:04.922Z,2.80
2017-12-20T13:33:49.690Z,2.70
2017-12-20T13:38:35.047Z,2.80
2017-12-20T13:43:19.291Z,2.70
2017-12-20T13:48:03.792Z,2.70
2017-12-20T13:52:48.135Z,2.70
2017-12-20T13:57:32.451Z,2.80
2017-12-20T14:02:17.252Z,2.80
2017-12-20T14:07:01.535Z,2.70
2017-12-20T14:11:45.928Z,2.80
2017-12-20T14:16:30.271Z,2.80
2017-12-20T14:21:14.830Z,2.80
2017-12-20T14:25:59.100Z,2.70
2017-12-20T14:30:43.471Z,2.60
2017-12-20T14:35:27.815Z,2.50
2017-12-20T14:40:12.123Z,2.60
2017-12-20T14:44:56.436Z,2.50
2017-12-20T14:49:40.703Z,2.40
2017-12-20T14:54:25.014Z,2.30
2017-12-20T14:59:09.507Z,2.30
2017-12-20T15:03:53.969Z,2.40
2017-12-20T15:08:38.332Z,2.30
2017-12-20T15:13:23.042Z,2.30
2017-12-20T15:18:07.467Z,2.30
2017-12-20T15:22:51.885Z,2.20
2017-12-20T15:27:36.333Z,2.20
2017-12-20T15:32:20.631Z,2.10
2017-12-20T15:37:05.691Z,2.10
2017-12-20T15:41:51.368Z,2.00
2017-12-20T15:46:35.767Z,2.00
2017-12-20T15:51:20.099Z,2.00
2017-12-20T15:56:05.217Z,1.90
2017-12-20T16:00:49.959Z,1.90
2017-12-20T16:05:34.240Z,2.00
2017-12-20T16:10:18.535Z,1.90
2017-12-20T16:15:02.927Z,1.90
2017-12-20T16:19:48.190Z,1.90
2017-12-20T16:24:33.387Z,1.90
2017-12-20T16:29:18.371Z,1.90
2017-12-20T16:34:02.733Z,1.90
2017-12-20T16:38:47.741Z,1.80
2017-12-20T16:43:32.099Z,1.70
2017-12-20T16:48:16.335Z,1.70
2017-12-20T16:53:00.903Z,1.70
2017-12-20T16:57:45.619Z,1.70
2017-12-20T17:02:30.028Z,1.70
2017-12-20T17:07:14.558Z,1.70
2017-12-20T17:11:59.273Z,1.70
2017-12-20T17:16:44.431Z,1.20
2017-12-20T17:21:28.815Z,1.20
2017-12-20T17:26:13.111Z,1.20
2017-12-20T17:30:57.692Z,1.10
2017-12-20T17:35:42.138Z,1.20
2017-12-20T17:40:26.578Z,1.20
2017-12-20T17:45:10.915Z,1.30
2017-12-20T17:49:55.668Z,1.40
2017-12-20T17:54:40.224Z,1.50
2017-12-20T17:59:25.291Z,1.60
2017-12-20T18:04:09.784Z,1.60
2017-12-20T18:08:54.161Z,1.60
2017-12-20T18:13:40.089Z,1.70
2017-12-20T18:18:24.408Z,1.60
2017-12-20T18:23:09.472Z,1.60
2017-12-20T18:27:53.831Z,1.60
2017-12-20T18:32:38.172Z,1.60
2017-12-20T18:37:22.515Z,1.60
2017-12-20T18:42:07.285Z,1.70
2017-12-20T18:46:53.457Z,1.60
2017-12-20T18:51:37.924Z,1.50
2017-12-20T18:56:22.295Z,1.50
2017-12-20T19:01:06.711Z,1.50
2017-12-20T19:05:51.099Z,1.60
2017-12-20T19:10:36.508Z,1.90
2017-12-20T19:15:20.851Z,1.90
2017-12-20T19:20:06.058Z,1.90
2017-12-20T19:24:50.378Z,2.00
2017-12-20T19:29:35.363Z,2.00
2017-12-20T19:34:19.872Z,2.00
2017-12-20T19:39:05.817Z,2.10
2017-12-20T19:43:50.399Z,2.10
2017-12-20T19:48:35.690Z,2.10
2017-12-20T19:53:20.832Z,2.20
2017-12-20T19:58:05.266Z,2.20
2017-12-20T20:02:50.107Z,2.30
2017-12-20T20:07:34.428Z,2.30
2017-12-20T20:12:18.721Z,2.30
2017-12-20T20:17:03.773Z,2.30
2017-12-20T20:21:48.075Z,2.30
2017-12-20T20:26:32.409Z,2.30
2017-12-20T20:31:16.747Z,2.30
2017-12-20T20:36:01.825Z,2.40
2017-12-20T20:40:46.223Z,2.40
2017-12-20T20:45:30.662Z,2.40
2017-12-20T20:50:15.121Z,2.40
2017-12-20T20:55:00.240Z,2.40
2017-12-20T20:59:45.155Z,2.40
2017-12-20T21:04:30.462Z,2.40
2017-12-20T21:09:14.855Z,2.40
2017-12-20T21:13:59.921Z,2.50
2017-12-20T21:18:44.767Z,2.50
2017-12-20T21:23:29.783Z,2.50
2017-12-20T21:28:15.075Z,2.50
2017-12-20T21:32:59.933Z,2.60
2017-12-20T21:37:44.306Z,2.50
2017-12-20T21:42:28.649Z,2.50
2017-12-20T21:47:12.944Z,2.50
2017-12-20T21:51:57.292Z,2.60
2017-12-20T21:56:41.958Z,2.60
2017-12-20T22:01:26.283Z,2.60
2017-12-20T22:06:10.628Z,2.70
2017-12-20T22:10:54.915Z,2.60
2017-12-20T22:15:40.431Z,2.60
2017-12-20T22:20:24.782Z,2.60
2017-12-20T22:25:09.974Z,2.60
2017-12-20T22:29:55.068Z,2.70
2017-12-20T22:34:39.880Z,2.70
2017-12-20T22:39:24.309Z,2.60
2017-12-20T22:44:09.549Z,2.60
2017-12-20T22:48:53.963Z,2.60
2017-12-20T22:53:38.394Z,2.60
2017-12-20T22:58:23.496Z,2.60
2017-12-20T23:03:07.786Z,2.60
2017-12-20T23:07:52.080Z,2.70
2017-12-20T23:12:36.409Z,2.70
2017-12-20T23:17:21.511Z,2.70
2017-12-20T23:22:07.066Z,2.70
2017-12-20T23:26:51.575Z,2.80
2017-12-20T23:31:35.984Z,2.70
2017-12-20T23:36:20.347Z,2.70
2017-12-20T23:41:04.998Z,2.70
2017-12-20T23:45:49.441Z,2.80
2017-12-20T23:50:34.573Z,2.80
2017-12-20T23:55:19.008Z,2.80
